UAE317 RJBB-OMDB
Flight info
| Callsign | UAE317 |
|---|---|
| Flight time | N/A |
| Altitude | 32000 |
| Route | MAIKO OSRIX SHION HABAR Y60 ISAKY Y592 ONIKU A593 LAMEN/K0917F320 A593 AKARA/K0919S0980 A593 PUD/K0922S1040 A593 PK R343 MADUK W51 LEGIV W164 ADGOL W50 XSH W80 IDGAG A581 QNX W136 XISLI A581 SGM A599 LINSO/N0493F340 A599 LSO/N0496F360 A599 CTG B465 CEA A791 BPL L639 LAXOM/N0480F380 L639 RASKI L301 RAGMA N571 VUSET A454 PASOV B540 KUPMA/N0404F240 B540 MIVEK P574 IMPED |
| Aircraft | A388/J-SADE2E3FGHIJ3J4J5M1RWXY/LB1D1 |
Departure
| Time | N/A |
|---|---|
| Airport | Kansai International Airport (RJBB) |
Arrival
| Time | 2026-04-22 17:25 |
|---|---|
| Airport | Dubai International Airport (OMDB) |
| Time | Latitude | Longitude | Altitude | Speed | Heading |
|---|---|---|---|---|---|
| 2026-04-22 16:14 | 23.11076 | 63.35915 | 37853 ft | 469 kts | 277° |
| 2026-04-22 16:14 | 23.11434 | 63.32389 | 37854 ft | 469 kts | 277° |
| 2026-04-22 16:15 | 23.12147 | 63.25342 | 37854 ft | 469 kts | 277° |
| 2026-04-22 16:15 | 23.12858 | 63.18291 | 37854 ft | 469 kts | 277° |
| 2026-04-22 16:16 | 23.13565 | 63.11233 | 37859 ft | 469 kts | 277° |
| 2026-04-22 16:16 | 23.14268 | 63.04190 | 37863 ft | 469 kts | 278° |
| 2026-04-22 16:17 | 23.14965 | 62.97183 | 37857 ft | 468 kts | 277° |
| 2026-04-22 16:17 | 23.15662 | 62.90140 | 37857 ft | 469 kts | 277° |
| 2026-04-22 16:18 | 23.16356 | 62.83090 | 37853 ft | 468 kts | 277° |
| 2026-04-22 16:18 | 23.17045 | 62.76058 | 37872 ft | 467 kts | 278° |
| 2026-04-22 16:19 | 23.17729 | 62.69046 | 37867 ft | 467 kts | 278° |
| 2026-04-22 16:19 | 23.18411 | 62.62032 | 37861 ft | 466 kts | 278° |
| 2026-04-22 16:20 | 23.19083 | 62.55074 | 37854 ft | 466 kts | 278° |
| 2026-04-22 16:20 | 23.19756 | 62.48074 | 37859 ft | 465 kts | 278° |
| 2026-04-22 16:21 | 23.20425 | 62.41092 | 37858 ft | 464 kts | 278° |
| 2026-04-22 16:21 | 23.21091 | 62.34104 | 37852 ft | 464 kts | 278° |
| 2026-04-22 16:22 | 23.22081 | 62.23659 | 37847 ft | 463 kts | 278° |
| 2026-04-22 16:23 | 23.23062 | 62.13231 | 37851 ft | 462 kts | 278° |
| 2026-04-22 16:23 | 23.23711 | 62.06287 | 37847 ft | 461 kts | 278° |
| 2026-04-22 16:24 | 23.24675 | 61.95919 | 37858 ft | 461 kts | 278° |
| 2026-04-22 16:25 | 23.25316 | 61.88984 | 37861 ft | 460 kts | 278° |
| 2026-04-22 16:25 | 23.26268 | 61.78615 | 37852 ft | 459 kts | 278° |
| 2026-04-22 16:26 | 23.26899 | 61.71696 | 37844 ft | 458 kts | 278° |
| 2026-04-22 16:26 | 23.27523 | 61.64828 | 37838 ft | 458 kts | 278° |
| 2026-04-22 16:27 | 23.28147 | 61.57926 | 37836 ft | 457 kts | 278° |
| 2026-04-22 16:27 | 23.28763 | 61.51079 | 37832 ft | 457 kts | 278° |
| 2026-04-22 16:28 | 23.29379 | 61.44195 | 37825 ft | 457 kts | 278° |
| 2026-04-22 16:28 | 23.29993 | 61.37304 | 37816 ft | 457 kts | 278° |
| 2026-04-22 16:29 | 23.30500 | 61.31585 | 37837 ft | 456 kts | 278° |
| 2026-04-22 16:29 | 23.31108 | 61.24701 | 37832 ft | 456 kts | 278° |
| 2026-04-22 16:30 | 23.31819 | 61.16718 | 37828 ft | 456 kts | 278° |
| 2026-04-22 16:30 | 23.32528 | 61.10998 | 37826 ft | 455 kts | 280° |
| 2026-04-22 16:31 | 23.33435 | 61.04176 | 37813 ft | 455 kts | 280° |
| 2026-04-22 16:31 | 23.34300 | 60.97392 | 37807 ft | 455 kts | 279° |
| 2026-04-22 16:32 | 23.35153 | 60.90563 | 37831 ft | 455 kts | 279° |
| 2026-04-22 16:32 | 23.36001 | 60.83733 | 37831 ft | 455 kts | 279° |
| 2026-04-22 16:33 | 23.36847 | 60.76898 | 37826 ft | 455 kts | 279° |
| 2026-04-22 16:33 | 23.37690 | 60.70068 | 37833 ft | 455 kts | 279° |
| 2026-04-22 16:34 | 23.38982 | 60.63350 | 37826 ft | 452 kts | 288° |
| 2026-04-22 16:34 | 23.41164 | 60.56989 | 37822 ft | 451 kts | 293° |
| 2026-04-22 16:35 | 23.43490 | 60.50640 | 37819 ft | 451 kts | 292° |
| 2026-04-22 16:35 | 23.45808 | 60.44276 | 37834 ft | 450 kts | 292° |
| 2026-04-22 16:36 | 23.48119 | 60.37937 | 37831 ft | 450 kts | 292° |
| 2026-04-22 16:36 | 23.50428 | 60.31602 | 37827 ft | 450 kts | 292° |
| 2026-04-22 16:37 | 23.52736 | 60.25258 | 37822 ft | 450 kts | 292° |
| 2026-04-22 16:37 | 23.55022 | 60.18963 | 37820 ft | 449 kts | 292° |
| 2026-04-22 16:38 | 23.57319 | 60.12633 | 37836 ft | 449 kts | 292° |
| 2026-04-22 16:38 | 23.59613 | 60.06299 | 37827 ft | 448 kts | 292° |
| 2026-04-22 16:39 | 23.61898 | 59.99981 | 37825 ft | 447 kts | 292° |
| 2026-04-22 16:39 | 23.64177 | 59.93671 | 37817 ft | 447 kts | 292° |
| 2026-04-22 16:40 | 23.66438 | 59.87400 | 37829 ft | 446 kts | 292° |
| 2026-04-22 16:41 | 23.69843 | 59.77942 | 37810 ft | 446 kts | 292° |
| 2026-04-22 16:41 | 23.72107 | 59.71640 | 37811 ft | 445 kts | 292° |
| 2026-04-22 16:42 | 23.74365 | 59.65348 | 37812 ft | 445 kts | 292° |
| 2026-04-22 16:42 | 23.76605 | 59.59093 | 37811 ft | 444 kts | 291° |
| 2026-04-22 16:43 | 23.78851 | 59.52817 | 37801 ft | 444 kts | 291° |
| 2026-04-22 16:43 | 23.81091 | 59.46545 | 37812 ft | 443 kts | 291° |
| 2026-04-22 16:44 | 23.83325 | 59.40280 | 37803 ft | 443 kts | 291° |
| 2026-04-22 16:44 | 23.85563 | 59.33998 | 37799 ft | 443 kts | 291° |
| 2026-04-22 16:45 | 23.87793 | 59.27726 | 37814 ft | 442 kts | 291° |
| 2026-04-22 16:45 | 23.90016 | 59.21466 | 37811 ft | 442 kts | 291° |
| 2026-04-22 16:46 | 23.92225 | 59.15237 | 37806 ft | 441 kts | 291° |
| 2026-04-22 16:46 | 23.94359 | 59.08953 | 37804 ft | 441 kts | 289° |
| 2026-04-22 16:47 | 23.96354 | 59.02614 | 37793 ft | 440 kts | 289° |
| 2026-04-22 16:47 | 23.98358 | 58.96308 | 37846 ft | 437 kts | 290° |
| 2026-04-22 16:48 | 24.00362 | 58.90043 | 37861 ft | 436 kts | 289° |
| 2026-04-22 16:48 | 24.02348 | 58.83834 | 37818 ft | 435 kts | 289° |
| 2026-04-22 16:49 | 24.04338 | 58.77600 | 37813 ft | 433 kts | 289° |
| 2026-04-22 16:49 | 24.06324 | 58.71371 | 37819 ft | 432 kts | 289° |
| 2026-04-22 16:50 | 24.08299 | 58.65165 | 37799 ft | 432 kts | 289° |
| 2026-04-22 16:50 | 24.10271 | 58.58961 | 37799 ft | 431 kts | 289° |
| 2026-04-22 16:51 | 24.12238 | 58.52758 | 37785 ft | 430 kts | 289° |
| 2026-04-22 16:51 | 24.14198 | 58.46572 | 37792 ft | 430 kts | 289° |
| 2026-04-22 16:52 | 24.16141 | 58.40427 | 37811 ft | 429 kts | 289° |
| 2026-04-22 16:52 | 24.18090 | 58.34256 | 37783 ft | 429 kts | 289° |
| 2026-04-22 16:53 | 24.20040 | 58.28072 | 37788 ft | 429 kts | 289° |
| 2026-04-22 16:53 | 24.21986 | 58.21888 | 37784 ft | 428 kts | 289° |
| 2026-04-22 16:54 | 24.23911 | 58.15762 | 37791 ft | 428 kts | 289° |
| 2026-04-22 16:54 | 24.25845 | 58.09597 | 37789 ft | 427 kts | 289° |
| 2026-04-22 16:55 | 24.27775 | 58.03437 | 37790 ft | 427 kts | 289° |
| 2026-04-22 16:55 | 24.29701 | 57.97278 | 37788 ft | 427 kts | 289° |
| 2026-04-22 16:56 | 24.31627 | 57.91111 | 37806 ft | 426 kts | 289° |
| 2026-04-22 16:56 | 24.33546 | 57.84958 | 37813 ft | 426 kts | 288° |
| 2026-04-22 16:57 | 24.35461 | 57.78805 | 37807 ft | 426 kts | 288° |
| 2026-04-22 16:57 | 24.37370 | 57.72661 | 37805 ft | 426 kts | 288° |
| 2026-04-22 16:58 | 24.38937 | 57.67610 | 37806 ft | 425 kts | 288° |
| 2026-04-22 16:59 | 24.40434 | 57.62781 | 37816 ft | 425 kts | 288° |
| 2026-04-22 17:00 | 24.42332 | 57.56648 | 37816 ft | 424 kts | 288° |
| 2026-04-22 17:00 | 24.45162 | 57.47488 | 37816 ft | 424 kts | 288° |
| 2026-04-22 17:01 | 24.47053 | 57.41351 | 37813 ft | 424 kts | 288° |
| 2026-04-22 17:01 | 24.48941 | 57.35216 | 37815 ft | 423 kts | 288° |
| 2026-04-22 17:02 | 24.50820 | 57.29100 | 37397 ft | 421 kts | 288° |
| 2026-04-22 17:02 | 24.51748 | 57.26078 | 36288 ft | 428 kts | 288° |
| 2026-04-22 17:02 | 24.52718 | 57.22917 | 34691 ft | 446 kts | 288° |
| 2026-04-22 17:03 | 24.53726 | 57.19625 | 33344 ft | 459 kts | 288° |
| 2026-04-22 17:03 | 24.54748 | 57.16288 | 32243 ft | 462 kts | 288° |
| 2026-04-22 17:03 | 24.55768 | 57.12956 | 31447 ft | 458 kts | 288° |
| 2026-04-22 17:03 | 24.56776 | 57.09658 | 30937 ft | 449 kts | 287° |
| 2026-04-22 17:04 | 24.57758 | 57.06447 | 30662 ft | 436 kts | 287° |
| 2026-04-22 17:04 | 24.58710 | 57.03327 | 30382 ft | 426 kts | 287° |
| 2026-04-22 17:04 | 24.59651 | 57.00240 | 29612 ft | 427 kts | 287° |
| 2026-04-22 17:04 | 24.60595 | 56.97136 | 28704 ft | 429 kts | 287° |
| 2026-04-22 17:05 | 24.61524 | 56.94079 | 28177 ft | 423 kts | 287° |
| 2026-04-22 17:05 | 24.62450 | 56.91034 | 27832 ft | 414 kts | 287° |
| 2026-04-22 17:05 | 24.63361 | 56.88038 | 27099 ft | 414 kts | 287° |
| 2026-04-22 17:05 | 24.64354 | 56.85055 | 26367 ft | 414 kts | 292° |
| 2026-04-22 17:06 | 24.65642 | 56.82248 | 25935 ft | 409 kts | 298° |
| 2026-04-22 17:06 | 24.67120 | 56.79588 | 25362 ft | 406 kts | 300° |
| 2026-04-22 17:06 | 24.68570 | 56.76974 | 24763 ft | 404 kts | 299° |
| 2026-04-22 17:06 | 24.70020 | 56.74343 | 24158 ft | 401 kts | 299° |
| 2026-04-22 17:07 | 24.71464 | 56.71719 | 23578 ft | 399 kts | 299° |
| 2026-04-22 17:07 | 24.72893 | 56.69122 | 22916 ft | 396 kts | 299° |
| 2026-04-22 17:07 | 24.74312 | 56.66545 | 22352 ft | 391 kts | 300° |
| 2026-04-22 17:07 | 24.75713 | 56.64002 | 21769 ft | 386 kts | 300° |
| 2026-04-22 17:08 | 24.77098 | 56.61484 | 21205 ft | 383 kts | 300° |
| 2026-04-22 17:08 | 24.78472 | 56.58987 | 20643 ft | 379 kts | 300° |
| 2026-04-22 17:08 | 24.79833 | 56.56514 | 20071 ft | 377 kts | 300° |
| 2026-04-22 17:08 | 24.81186 | 56.54052 | 19517 ft | 374 kts | 300° |
| 2026-04-22 17:09 | 24.82527 | 56.51610 | 18973 ft | 372 kts | 300° |
| 2026-04-22 17:09 | 24.83861 | 56.49179 | 18426 ft | 370 kts | 300° |
| 2026-04-22 17:09 | 24.84740 | 56.47578 | 18052 ft | 368 kts | 300° |
| 2026-04-22 17:09 | 24.86506 | 56.44360 | 17297 ft | 363 kts | 300° |
| 2026-04-22 17:10 | 24.87661 | 56.41950 | 16773 ft | 358 kts | 290° |
| 2026-04-22 17:10 | 24.88304 | 56.39329 | 16259 ft | 353 kts | 277° |
| 2026-04-22 17:10 | 24.88399 | 56.36653 | 15745 ft | 348 kts | 266° |
| 2026-04-22 17:10 | 24.88229 | 56.34002 | 15239 ft | 345 kts | 266° |
| 2026-04-22 17:11 | 24.88083 | 56.31383 | 14735 ft | 341 kts | 266° |
| 2026-04-22 17:11 | 24.87948 | 56.28779 | 14254 ft | 339 kts | 266° |
| 2026-04-22 17:11 | 24.88057 | 56.26174 | 13956 ft | 347 kts | 278° |
| 2026-04-22 17:11 | 24.88737 | 56.23622 | 13523 ft | 354 kts | 293° |
| 2026-04-22 17:12 | 24.89920 | 56.21281 | 13409 ft | 343 kts | 298° |
| 2026-04-22 17:12 | 24.91083 | 56.19053 | 13264 ft | 327 kts | 296° |
| 2026-04-22 17:12 | 24.91974 | 56.16782 | 12485 ft | 324 kts | 289° |
| 2026-04-22 17:12 | 24.92781 | 56.14394 | 11392 ft | 337 kts | 288° |
| 2026-04-22 17:13 | 24.93586 | 56.11955 | 10796 ft | 339 kts | 288° |
| 2026-04-22 17:13 | 24.94402 | 56.09522 | 10431 ft | 338 kts | 289° |
| 2026-04-22 17:13 | 24.95217 | 56.07132 | 10225 ft | 336 kts | 289° |
| 2026-04-22 17:13 | 24.96046 | 56.04721 | 10103 ft | 336 kts | 289° |
| 2026-04-22 17:14 | 24.96875 | 56.02318 | 10055 ft | 332 kts | 289° |
| 2026-04-22 17:14 | 24.97672 | 56.00018 | 10056 ft | 308 kts | 289° |
| 2026-04-22 17:14 | 24.98416 | 55.97873 | 9885 ft | 291 kts | 289° |
| 2026-04-22 17:14 | 24.99135 | 55.95790 | 9246 ft | 291 kts | 289° |
| 2026-04-22 17:15 | 24.99368 | 55.95113 | 9032 ft | 291 kts | 289° |
| 2026-04-22 17:15 | 25.00558 | 55.91657 | 8071 ft | 288 kts | 289° |
| 2026-04-22 17:15 | 25.01267 | 55.89599 | 7506 ft | 286 kts | 288° |
| 2026-04-22 17:15 | 25.01973 | 55.87550 | 6921 ft | 286 kts | 288° |
| 2026-04-22 17:16 | 25.02678 | 55.85503 | 6391 ft | 283 kts | 288° |
| 2026-04-22 17:16 | 25.03370 | 55.83490 | 6142 ft | 278 kts | 288° |
| 2026-04-22 17:16 | 25.04055 | 55.81498 | 5780 ft | 280 kts | 288° |
| 2026-04-22 17:16 | 25.04513 | 55.80161 | 5532 ft | 280 kts | 288° |
| 2026-04-22 17:17 | 25.05196 | 55.78171 | 5019 ft | 276 kts | 289° |
| 2026-04-22 17:17 | 25.05880 | 55.76176 | 4386 ft | 279 kts | 289° |
| 2026-04-22 17:17 | 25.06560 | 55.74196 | 4132 ft | 273 kts | 289° |
| 2026-04-22 17:17 | 25.07227 | 55.72255 | 4034 ft | 270 kts | 289° |
| 2026-04-22 17:18 | 25.07872 | 55.70376 | 4022 ft | 250 kts | 289° |
| 2026-04-22 17:18 | 25.08462 | 55.68666 | 4021 ft | 227 kts | 288° |
| 2026-04-22 17:18 | 25.09000 | 55.67110 | 4020 ft | 206 kts | 288° |
| 2026-04-22 17:18 | 25.09427 | 55.65695 | 3916 ft | 182 kts | 285° |
| 2026-04-22 17:19 | 25.10487 | 55.63181 | 2877 ft | 179 kts | 298° |
| 2026-04-22 17:19 | 25.11742 | 55.60904 | 2104 ft | 176 kts | 300° |
| 2026-04-22 17:20 | 25.13037 | 55.58563 | 2021 ft | 179 kts | 300° |
| 2026-04-22 17:20 | 25.14316 | 55.56249 | 2019 ft | 176 kts | 301° |
| 2026-04-22 17:21 | 25.14958 | 55.55093 | 2030 ft | 177 kts | 301° |
| 2026-04-22 17:21 | 25.16151 | 55.52940 | 2022 ft | 157 kts | 301° |
| 2026-04-22 17:22 | 25.17262 | 55.50936 | 2023 ft | 150 kts | 301° |
| 2026-04-22 17:22 | 25.17801 | 55.49960 | 2021 ft | 148 kts | 301° |
| 2026-04-22 17:22 | 25.18890 | 55.47995 | 1730 ft | 148 kts | 301° |
| 2026-04-22 17:23 | 25.19431 | 55.47017 | 1556 ft | 149 kts | 302° |
| 2026-04-22 17:23 | 25.20504 | 55.45079 | 1172 ft | 147 kts | 302° |
| 2026-04-22 17:23 | 25.21030 | 55.44121 | 988 ft | 145 kts | 302° |
| 2026-04-22 17:24 | 25.21549 | 55.43192 | 809 ft | 142 kts | 303° |
| 2026-04-22 17:24 | 25.22059 | 55.42266 | 644 ft | 140 kts | 302° |
| 2026-04-22 17:24 | 25.22559 | 55.41342 | 454 ft | 140 kts | 301° |
| 2026-04-22 17:24 | 25.23054 | 55.40426 | 245 ft | 139 kts | 302° |
| 2026-04-22 17:25 | 25.23559 | 55.39516 | 57 ft | 139 kts | 302° |
| 2026-04-22 17:25 | 25.24026 | 55.38690 | 29 ft | 106 kts | 305° |
| 2026-04-22 17:25 | 25.24302 | 55.38205 | 32 ft | 56 kts | 302° |
| 2026-04-22 17:25 | 25.24482 | 55.37881 | 29 ft | 44 kts | 301° |
| 2026-04-22 17:26 | 25.24626 | 55.37621 | 28 ft | 36 kts | 301° |
| 2026-04-22 17:26 | 25.24741 | 55.37400 | 28 ft | 31 kts | 292° |
| 2026-04-22 17:26 | 25.24783 | 55.37188 | 29 ft | 24 kts | 272° |
| 2026-04-22 17:26 | 25.24789 | 55.37031 | 27 ft | 15 kts | 271° |
| 2026-04-22 17:27 | 25.24745 | 55.36936 | 27 ft | 13 kts | 206° |
| 2026-04-22 17:27 | 25.24651 | 55.36881 | 26 ft | 18 kts | 211° |
| 2026-04-22 17:27 | 25.24537 | 55.36804 | 30 ft | 21 kts | 212° |
| 2026-04-22 17:27 | 25.24417 | 55.36702 | 31 ft | 23 kts | 230° |
| 2026-04-22 17:28 | 25.24370 | 55.36541 | 26 ft | 23 kts | 273° |
| 2026-04-22 17:28 | 25.24429 | 55.36385 | 29 ft | 22 kts | 301° |
| 2026-04-22 17:28 | 25.24513 | 55.36240 | 29 ft | 20 kts | 301° |
| 2026-04-22 17:28 | 25.24545 | 55.36182 | 27 ft | 0 kts | 301° |
| 2026-04-22 17:29 | 25.24546 | 55.36181 | 27 ft | 2 kts | 301° |
| 2026-04-22 17:29 | 25.24562 | 55.36152 | 32 ft | 4 kts | 322° |
| 2026-04-22 17:29 | 25.24581 | 55.36148 | 30 ft | 3 kts | 21° |
| 2026-04-22 17:30 | 25.24619 | 55.36172 | 31 ft | 9 kts | 32° |
| 2026-04-22 17:30 | 25.24669 | 55.36205 | 29 ft | 6 kts | 30° |
| 2026-04-22 17:30 | 25.24690 | 55.36219 | 30 ft | 3 kts | 31° |
| 2026-04-22 17:30 | 25.24702 | 55.36227 | 29 ft | 1 kts | 31° |
| 2026-04-22 17:31 | 25.24704 | 55.36229 | 29 ft | 0 kts | 31° |